Time;durP1;ratioP1;P1;durP2;ratioP2;P2;SDS_P1;SDS_P2;PMS_P1;PMS_P2;Temp;Humidity;BMP_temperature;BMP_pressure;BME280_temperature;BME280_humidity;BME280_pressure;Samples;Min_cycle;Max_cycle;Signal;HPM_P1;HPM_P2
2022/06/13 00:05:47;;;;;;;21.50;16.00;;;;;;;17.33;63.80;98590.81;433677;1267;108863;-41
2022/06/13 00:15:54;;;;;;;18.90;16.00;;;;;;;16.98;64.28;98570.91;433502;1268;99236;-41
2022/06/13 00:26:03;;;;;;;22.40;16.00;;;;;;;16.81;64.94;98565.89;433618;1267;109658;-41
2022/06/13 00:36:11;;;;;;;18.00;15.20;;;;;;;16.56;65.67;98556.20;433733;1268;99248;-43
2022/06/13 01:06:38;;;;;;;20.50;17.00;;;;;;;16.34;66.72;98532.38;433850;1267;99241;-41
2022/06/13 01:16:45;;;;;;;19.40;16.90;;;;;;;16.28;66.91;98527.63;433605;1268;109336;-40
2022/06/13 01:27:31;;;;;;;18.10;14.70;;;;;;;16.33;67.05;98528.38;434293;1257;99285;-40
2022/06/13 01:37:38;;;;;;;17.50;15.70;;;;;;;16.21;67.45;98515.36;433783;1267;111682;-46
2022/06/13 01:47:44;;;;;;;22.00;16.20;;;;;;;16.09;67.95;98511.70;433619;1267;108778;-41
2022/06/13 01:57:54;;;;;;;25.00;16.80;;;;;;;16.13;68.14;98535.92;433618;1267;99340;-41
2022/06/13 02:08:05;;;;;;;19.40;15.40;;;;;;;16.15;68.64;98556.77;433691;1267;108837;-42
2022/06/13 02:18:29;;;;;;;16.70;11.30;;;;;;;16.52;68.47;98568.31;433578;1267;99312;-42
2022/06/13 02:28:43;;;;;;;16.80;11.40;;;;;;;16.73;68.19;98569.15;433685;1268;113185;-43
2022/06/13 02:38:53;;;;;;;14.90;12.60;;;;;;;16.78;68.04;98550.41;433643;1267;108853;-42
2022/06/13 02:49:07;;;;;;;16.50;12.40;;;;;;;16.46;67.86;98541.53;433614;1267;99372;-42
2022/06/13 02:59:18;;;;;;;10.50;9.50;;;;;;;16.30;68.15;98528.37;433464;1267;108748;-42
2022/06/13 03:09:27;;;;;;;11.80;9.90;;;;;;;16.26;68.10;98528.48;433657;1267;98869;-41
2022/06/13 03:19:34;;;;;;;11.40;8.70;;;;;;;16.42;68.36;98526.69;433740;1265;112561;-42
2022/06/13 03:29:39;;;;;;;15.80;9.80;;;;;;;16.82;68.38;98512.54;433730;1268;108826;-42
2022/06/13 03:39:47;;;;;;;11.70;8.30;;;;;;;17.72;68.13;98514.56;433770;1267;98847;-42
2022/06/13 03:50:00;;;;;;;12.00;8.50;;;;;;;19.76;67.02;98491.73;433555;1268;108876;-43
2022/06/13 04:00:05;;;;;;;5.50;5.00;;;;;;;21.69;64.71;98460.98;433630;1267;99350;-44
2022/06/13 04:10:16;;;;;;;5.80;4.70;;;;;;;23.45;62.69;98454.61;433718;1267;112377;-41
2022/06/13 04:20:22;;;;;;;6.30;5.70;;;;;;;23.52;60.93;98446.95;433620;1267;108528;-43
2022/06/13 04:30:26;;;;;;;7.80;5.00;;;;;;;24.51;59.47;98446.55;433580;1267;99277;-42
2022/06/13 04:40:37;;;;;;;5.30;4.80;;;;;;;25.75;57.74;98437.66;433735;1267;108868;-43
2022/06/13 04:50:46;;;;;;;7.80;4.20;;;;;;;25.49;56.12;98425.13;433738;1267;99728;-42
2022/06/13 05:00:59;;;;;;;5.80;4.00;;;;;;;25.92;54.68;98420.80;433559;1267;112538;-41
2022/06/13 05:11:08;;;;;;;4.00;3.40;;;;;;;26.28;52.65;98399.70;433607;1268;109574;-41
2022/06/13 05:21:27;;;;;;;5.40;4.30;;;;;;;26.24;52.11;98412.15;433811;1268;99657;-41
2022/06/13 05:31:34;;;;;;;15.90;8.20;;;;;;;24.49;52.32;98437.77;433559;1268;112449;-42
2022/06/13 05:41:42;;;;;;;25.90;13.30;;;;;;;23.43;53.45;98446.48;433688;1267;109245;-43
2022/06/13 05:51:49;;;;;;;29.90;13.50;;;;;;;22.95;54.65;98464.45;433798;1267;98824;-43
2022/06/13 06:01:57;;;;;;;24.30;11.70;;;;;;;22.40;55.46;98513.80;433779;1267;108851;-41
2022/06/13 06:12:05;;;;;;;13.40;9.90;;;;;;;22.03;56.42;98516.05;433618;1267;99282;-42
2022/06/13 06:22:13;;;;;;;14.70;8.50;;;;;;;21.90;57.06;98526.30;433684;1268;112425;-41
2022/06/13 06:32:20;;;;;;;13.70;10.80;;;;;;;21.51;57.03;98494.45;433814;1267;108789;-40
2022/06/13 06:42:27;;;;;;;16.60;10.20;;;;;;;21.03;57.61;98489.29;433774;1267;98860;-42
2022/06/13 06:52:54;;;;;;;19.10;10.30;;;;;;;20.29;58.45;98470.02;433783;1267;112232;-42
2022/06/13 07:03:02;;;;;;;15.60;10.50;;;;;;;19.94;60.11;98481.01;433466;1268;109530;-42
2022/06/13 07:13:08;;;;;;;11.00;9.90;;;;;;;20.14;61.16;98460.97;433562;1267;99128;-42
2022/06/13 07:23:16;;;;;;;13.40;11.70;;;;;;;20.04;61.08;98436.39;433669;1268;108855;-42
2022/06/13 07:33:23;;;;;;;19.00;13.10;;;;;;;19.84;61.90;98425.80;433625;1268;98833;-42
2022/06/13 07:43:30;;;;;;;11.80;9.90;;;;;;;20.10;62.20;98446.38;433828;1267;112442;-42
2022/06/13 07:53:37;;;;;;;;;;;;;;;20.53;62.62;98479.42;433918;1267;108723;-41
2022/06/13 08:14:12;;;;;;;12.70;10.70;;;;;;;19.95;63.14;98501.55;433763;1267;108805;-43
2022/06/13 08:24:20;;;;;;;9.50;6.80;;;;;;;19.10;63.65;98466.27;433722;1267;99146;-41
2022/06/13 08:34:27;;;;;;;6.70;6.00;;;;;;;18.57;64.53;98438.27;433814;1268;112318;-45
2022/06/13 08:54:51;;;;;;;8.20;7.40;;;;;;;17.62;67.29;98449.81;433375;1269;98001;-42
2022/06/13 09:05:04;;;;;;;9.00;6.50;;;;;;;17.10;69.13;98437.39;433528;1268;108971;-40
2022/06/13 09:15:16;;;;;;;6.90;6.20;;;;;;;17.12;70.03;98433.48;433644;1268;99273;-41
2022/06/13 09:25:24;;;;;;;11.20;7.60;;;;;;;17.27;70.49;98447.07;433387;1268;408745;-41
2022/06/13 09:35:35;;;;;;;10.00;6.30;;;;;;;17.25;71.65;98434.95;433779;1268;108248;-42
2022/06/13 09:45:45;;;;;;;7.30;5.70;;;;;;;17.46;72.25;98424.91;433891;1268;98863;-43
2022/06/13 09:55:58;;;;;;;;;;;;;;;17.81;71.90;98484.23;433968;1268;108757;-41
2022/06/13 10:06:03;;;;;;;8.70;6.30;;;;;;;17.99;71.73;98494.46;433792;1268;98824;-42
2022/06/13 10:26:14;;;;;;;5.90;5.20;;;;;;;18.33;71.28;98471.88;433705;1268;108530;-41
2022/06/13 10:36:25;;;;;;;5.00;4.30;;;;;;;18.32;70.95;98466.54;433692;1268;99266;-44
2022/06/13 10:46:32;;;;;;;4.20;3.40;;;;;;;18.42;70.80;98458.29;433615;1268;109086;-42
2022/06/13 10:56:41;;;;;;;3.30;3.00;;;;;;;18.42;70.70;98452.67;433727;1268;99269;-42
2022/06/13 11:06:53;;;;;;;8.50;3.60;;;;;;;18.44;70.87;98448.74;433722;1268;111509;-45
2022/06/13 11:27:41;;;;;;;4.30;3.90;;;;;;;17.83;70.79;98446.08;432950;1270;99264;-41
2022/06/13 11:37:48;;;;;;;6.80;5.70;;;;;;;17.68;71.13;98443.90;433686;1268;109258;-41
2022/06/13 11:47:56;;;;;;;7.20;5.70;;;;;;;17.44;71.85;98440.36;433886;1268;99251;-42
2022/06/13 11:58:05;;;;;;;5.30;4.80;;;;;;;17.30;72.49;98455.38;433658;1268;111437;-42
2022/06/13 12:08:19;;;;;;;8.60;4.40;;;;;;;17.11;74.28;98464.95;433801;1268;109020;-42
2022/06/13 12:18:24;;;;;;;5.70;2.70;;;;;;;16.75;75.90;98482.04;433856;1268;98445;-42
2022/06/13 12:28:30;;;;;;;12.00;6.90;;;;;;;16.24;75.50;98482.71;433730;1268;109059;-41
2022/06/13 12:48:57;;;;;;;4.60;3.70;;;;;;;15.79;75.32;98504.17;433577;1268;112715;-45
2022/06/13 13:09:33;;;;;;;4.10;3.30;;;;;;;15.39;75.55;98513.80;433834;1268;98860;-41
2022/06/13 13:19:43;;;;;;;5.80;4.30;;;;;;;15.24;75.65;98525.39;433590;1268;109152;-42
2022/06/13 13:29:49;;;;;;;5.30;4.40;;;;;;;15.10;75.87;98530.38;433754;1268;98054;-43
2022/06/13 13:50:06;;;;;;;7.40;4.50;;;;;;;15.35;76.32;98506.48;433656;1268;108888;-41
2022/06/13 14:00:14;;;;;;;11.30;6.00;;;;;;;15.48;76.12;98515.64;433814;1266;99263;-41
2022/06/13 14:10:19;;;;;;;9.20;5.30;;;;;;;15.55;76.06;98500.35;433797;1268;108771;-40
2022/06/13 14:20:26;;;;;;;8.80;5.90;;;;;;;15.72;76.07;98487.98;433851;1267;99259;-42
2022/06/13 14:41:08;;;;;;;6.50;5.40;;;;;;;15.66;76.54;98528.13;433733;1267;108856;-42
2022/06/13 14:51:19;;;;;;;8.70;6.20;;;;;;;15.56;76.52;98522.89;433901;1267;99181;-40
2022/06/13 15:01:28;;;;;;;6.90;5.60;;;;;;;15.61;76.75;98506.81;433785;1267;108577;-41
2022/06/13 15:21:43;;;;;;;6.10;5.50;;;;;;;16.07;76.67;98519.38;433783;1267;111585;-42
2022/06/13 15:31:49;;;;;;;11.90;8.00;;;;;;;16.15;76.63;98517.78;433816;1268;106906;-45
2022/06/13 15:41:59;;;;;;;12.60;7.20;;;;;;;16.40;76.85;98525.69;433659;1267;98875;-42
2022/06/13 15:52:08;;;;;;;8.70;7.80;;;;;;;16.62;76.76;98528.91;433836;1267;108912;-41
2022/06/13 16:02:15;;;;;;;8.30;6.80;;;;;;;16.85;76.46;98516.09;433696;1267;98846;-41
2022/06/13 16:12:24;;;;;;;8.60;7.80;;;;;;;17.10;76.23;98509.09;433627;1267;112926;-46
2022/06/13 16:32:42;;;;;;;10.90;7.60;;;;;;;17.04;75.96;98524.98;433613;1268;99267;-42
2022/06/13 16:42:49;;;;;;;9.60;7.00;;;;;;;17.11;76.00;98540.94;433762;1267;107899;-41
2022/06/13 16:52:54;;;;;;;10.10;6.50;;;;;;;17.31;75.95;98549.86;433601;1268;99236;-41
2022/06/13 17:03:02;;;;;;;9.90;7.90;;;;;;;17.61;75.74;98543.29;433745;1267;111494;-42
2022/06/13 17:13:08;;;;;;;13.00;8.60;;;;;;;17.30;75.55;98539.23;433908;1267;107972;-43
2022/06/13 17:23:19;;;;;;;12.30;9.40;;;;;;;16.90;75.56;98542.89;433885;1268;99181;-41
2022/06/13 17:33:26;;;;;;;18.40;11.10;;;;;;;16.73;75.64;98572.09;433678;1268;108668;-41
2022/06/13 17:43:34;;;;;;;11.50;8.30;;;;;;;16.69;76.12;98589.98;433792;1267;98878;-41
2022/06/13 17:53:44;;;;;;;11.50;7.10;;;;;;;16.68;76.23;98600.14;433881;1268;112237;-41
2022/06/13 18:03:52;;;;;;;13.70;10.00;;;;;;;16.62;76.54;98616.41;433629;1267;108536;-41
2022/06/13 18:14:00;;;;;;;6.40;3.80;;;;;;;16.27;75.85;98616.31;433886;1267;99258;-43
2022/06/13 18:24:10;;;;;;;7.00;3.60;;;;;;;15.72;75.20;98616.18;433727;1267;109937;-43
2022/06/13 18:34:17;;;;;;;9.90;3.40;;;;;;;15.43;75.12;98624.02;433652;1267;99292;-42
2022/06/13 18:44:25;;;;;;;8.20;3.50;;;;;;;15.25;75.02;98634.38;433943;1268;112280;-43
2022/06/13 18:54:33;;;;;;;9.90;5.50;;;;;;;15.15;74.82;98654.52;433616;1267;107580;-41
2022/06/13 19:04:42;;;;;;;9.40;2.70;;;;;;;14.90;74.79;98680.40;433865;1267;99259;-43
2022/06/13 19:14:54;;;;;;;10.60;4.00;;;;;;;14.55;74.35;98702.98;433820;1267;109101;-42
2022/06/13 19:35:16;;;;;;;6.30;3.60;;;;;;;13.61;74.16;98731.52;433797;1267;112327;-41
2022/06/13 19:45:26;;;;;;;11.60;4.50;;;;;;;13.40;74.36;98740.60;433630;1267;108956;-41
2022/06/13 19:55:33;;;;;;;15.70;5.10;;;;;;;13.21;74.74;98749.20;433625;1265;99221;-40
2022/06/13 20:16:04;;;;;;;14.40;6.50;;;;;;;12.74;74.87;98757.04;433626;1267;98910;-41
2022/06/13 20:26:12;;;;;;;14.90;6.50;;;;;;;12.63;75.10;98762.85;433811;1267;112989;-44
2022/06/13 20:36:23;;;;;;;13.80;5.90;;;;;;;12.57;75.27;98761.85;433686;1267;109308;-41
2022/06/13 20:46:32;;;;;;;15.00;6.20;;;;;;;12.57;75.45;98768.59;433766;1268;98284;-42
2022/06/13 20:56:40;;;;;;;16.60;6.50;;;;;;;12.57;75.63;98773.84;433930;1267;108609;-43
2022/06/13 21:16:54;;;;;;;7.70;5.20;;;;;;;12.45;75.98;98763.54;433783;1267;112411;-42
2022/06/13 21:27:05;;;;;;;10.50;5.10;;;;;;;12.26;75.81;98764.69;433028;1267;896573;-42
2022/06/13 21:37:12;;;;;;;8.20;5.00;;;;;;;12.22;76.17;98761.80;433512;1267;98351;-43
2022/06/13 21:47:20;;;;;;;16.00;5.30;;;;;;;12.23;76.28;98755.56;433649;1267;108943;-44
2022/06/13 21:57:27;;;;;;;8.00;5.50;;;;;;;12.17;76.32;98759.01;433856;1267;98036;-42
2022/06/13 22:07:39;;;;;;;11.70;5.80;;;;;;;12.17;76.56;98760.60;433725;1267;112447;-41
2022/06/13 22:17:46;;;;;;;8.50;5.30;;;;;;;12.27;76.80;98763.36;433655;1267;107634;-43
2022/06/13 22:27:54;;;;;;;15.90;6.30;;;;;;;12.27;76.72;98768.73;433529;1267;99368;-40
2022/06/13 22:58:31;;;;;;;9.50;5.40;;;;;;;11.74;76.75;98781.73;433545;1269;112624;-40
2022/06/13 23:08:40;;;;;;;6.90;5.20;;;;;;;11.76;76.97;98783.82;433841;1267;108792;-40
2022/06/13 23:18:48;;;;;;;11.50;6.60;;;;;;;11.74;77.03;98782.23;433754;1267;98846;-39
2022/06/13 23:28:54;;;;;;;10.90;6.90;;;;;;;11.66;77.02;98783.27;433471;1267;109877;-43
2022/06/13 23:39:01;;;;;;;11.20;5.30;;;;;;;11.53;76.93;98792.42;433406;1267;99318;-42
2022/06/13 23:49:26;;;;;;;11.00;4.80;;;;;;;11.57;77.02;98803.04;433516;1267;111722;-41
